Data for 04/18/2015

Time Sea-Level Adjusted Pressure Absolute Pressure Temperature Relative Humidity Dew Point   
(mb) (inHg) (mb) (inHg) (C) (F) (%) (C) (F)
00:05 1019 30.09 848 25.04 5.4 41.8 36 -8.5 16.6
00:10 1019 30.09 848 25.04 5.2 41.4 34 -9.4 15
00:15 1019 30.09 848 25.04 5.9 42.7 34 -8.9 16
00:20 1019 30.09 848 25.04 5.5 41.9 35 -8.7 16.3
00:25 1019 30.09 848 25.04 5.5 42 34 -9.2 15.4
00:30 1019 30.09 848 25.04 5.9 42.6 31 -9.8 14.4
00:35 1019 30.09 848 25.04 5.9 42.6 34 -9 15.9
00:40 1019 30.09 848 25.04 5.7 42.3 33 -9.1 15.6
00:45 1019 30.09 848 25.04 5.8 42.4 33 -9.4 15.1
00:50 1019 30.09 848 25.04 5.8 42.4 33 -9.4 15
00:55 1019 30.09 848 25.04 5.7 42.3 33 -9.2 15.4
01:00 1019 30.09 848 25.04 5.9 42.7 32 -9.6 14.7
01:05 1019 30.09 848 25.04 6 42.8 35 -8.3 17.1
01:10 1019 30.09 848 25.04 5.7 42.2 35 -8.7 16.3
01:15 1019 30.09 848 25.04 5.7 42.3 33 -9.4 15
01:20 1019 30.09 848 25.04 6 42.8 33 -9.1 15.7
01:25 1019 30.09 848 25.04 5.7 42.3 33 -9.2 15.4
01:30 1019 30.09 848 25.04 5.6 42.2 34 -8.9 15.9
01:35 1019 30.09 848 25.04 5.6 42 34 -9.3 15.3
01:40 1019 30.09 848 25.04 5.6 42.1 34 -8.9 16
01:45 1019 30.09 848 25.04 5.7 42.2 33 -9.2 15.4
01:50 1019 30.09 848 25.04 5.7 42.3 35 -8.7 16.4
01:55 1019 30.09 848 25.04 5.5 41.9 36 -8.5 16.8
02:00 1019 30.09 848 25.04 5.2 41.4 35 -9 15.8
02:05 1019 30.09 848 25.04 5.4 41.8 36 -8.6 16.5
02:10 1019 30.09 848 25.04 5.4 41.7 35 -8.8 16.1
02:15 1019 30.09 849 25.07 5.5 41.9 35 -8.7 16.4
02:20 1019 30.09 849 25.07 5.5 41.9 37 -8 17.6
02:25 1019 30.09 848 25.04 5 41.1 39 -7.6 18.3
02:30 1019 30.09 849 25.07 4.6 40.2 41 -7.5 18.4
02:35 1019 30.09 849 25.07 4.1 39.3 44 -7.1 19.2
02:40 1019 30.09 849 25.07 3.3 37.9 46 -7.3 18.8
02:45 1019 30.09 849 25.07 3.5 38.3 45 -7.5 18.6
02:50 1019 30.09 849 25.07 3.6 38.6 44 -7.4 18.7
02:55 1019 30.09 849 25.07 3.7 38.7 45 -7.2 19
03:00 1019 30.09 849 25.07 3.8 38.8 43 -7.5 18.4
03:05 1020 30.12 849 25.07 4 39.1 44 -7.3 18.8
03:10 1020 30.12 849 25.07 4 39.1 44 -7.2 19.1
03:15 1020 30.12 849 25.07 3.8 38.9 45 -7.1 19.3
03:20 1020 30.12 849 25.07 3.6 38.5 46 -7 19.4
03:25 1020 30.12 849 25.07 3.2 37.7 48 -6.8 19.7
03:30 1020 30.12 849 25.07 3.1 37.6 46 -7.3 18.9
03:35 1020 30.12 849 25.07 3.2 37.7 47 -7.2 19.1
03:40 1020 30.12 849 25.07 3.1 37.6 47 -7.1 19.2
03:45 1020 30.12 849 25.07 3.1 37.6 46 -7.5 18.5
03:50 1020 30.12 849 25.07 3.4 38.1 44 -7.8 18
03:55 1020 30.12 849 25.07 3.7 38.6 44 -7.5 18.5
04:00 1020 30.12 849 25.07 3.8 38.9 43 -7.5 18.5
04:05 1020 30.12 849 25.07 3.6 38.6 43 -7.9 17.7
04:10 1020 30.12 849 25.07 3.9 39 42 -8 17.6
04:15 1020 30.12 849 25.07 4 39.3 40 -8.2 17.2
04:20 1020 30.12 849 25.07 4 39.3 43 -7.4 18.7
04:25 1020 30.12 849 25.07 3.8 38.8 46 -6.8 19.8
04:30 1020 30.12 849 25.07 3.6 38.4 48 -6.5 20.4
04:35 1020 30.12 849 25.07 3.5 38.2 49 -6.3 20.7
04:40 1020 30.12 849 25.07 3.3 37.9 50 -6.2 20.9
04:45 1020 30.12 849 25.07 3.2 37.7 51 -5.9 21.3
04:50 1020 30.12 849 25.07 3.3 37.9 52 -5.7 21.7
04:55 1020 30.12 849 25.07 3.6 38.6 50 -5.9 21.3
05:00 1020 30.12 849 25.07 4 39.2 50 -5.5 22
05:05 1020 30.12 849 25.07 4.8 40.6 49 -5 23
05:10 1020 30.12 849 25.07 4.6 40.3 49 -5.1 22.7
05:15 1020 30.12 849 25.07 4.2 39.6 51 -5.1 22.9
05:20 1020 30.12 849 25.07 3.8 38.8 53 -4.9 23.3
05:25 1020 30.12 849 25.07 3.5 38.4 55 -4.7 23.5
05:30 1020 30.12 849 25.07 4 39.2 54 -4.5 23.8
05:35 1020 30.12 849 25.07 3.8 38.8 55 -4.6 23.8
05:40 1020 30.12 849 25.07 3.3 37.9 55 -4.9 23.1
05:45 1020 30.12 850 25.1 3.1 37.6 56 -4.8 23.4
05:50 1020 30.12 850 25.1 3.9 39 53 -4.8 23.3
05:55 1020 30.12 850 25.1 4.8 40.7 52 -4.2 24.4
06:00 1021 30.15 850 25.1 4.4 40 53 -4.4 24.1
06:05 1021 30.15 850 25.1 3.7 38.6 55 -4.5 24
06:10 1021 30.15 850 25.1 3.5 38.2 55 -4.6 23.6
06:15 1021 30.15 850 25.1 3.7 38.7 54 -4.7 23.5
06:20 1021 30.15 850 25.1 4 39.3 54 -4.5 23.8
06:25 1021 30.15 850 25.1 4.4 39.8 55 -3.9 24.9
06:30 1021 30.15 850 25.1 4.9 40.9 53 -3.8 25.2
06:35 1021 30.15 850 25.1 5.4 41.6 53 -3.5 25.7
06:40 1021 30.15 850 25.1 5.8 42.4 52 -3.3 26.1
06:45 1021 30.15 850 25.1 6.4 43.5 50 -3.3 26.1
06:50 1021 30.15 850 25.1 7 44.6 48 -3.3 26.1
06:55 1021 30.15 850 25.1 7.6 45.7 46 -3.2 26.3
07:00 1021 30.15 850 25.1 8.3 47 44 -3.1 26.4
07:05 1021 30.15 850 25.1 8.7 47.7 44 -2.9 26.8
07:10 1021 30.15 850 25.1 8.7 47.6 44 -2.8 27
07:15 1021 30.15 850 25.1 8 46.3 49 -2.2 28.1
07:20 1021 30.15 850 25.1 7.6 45.7 50 -2 28.4
07:25 1021 30.15 850 25.1 7.9 46.3 48 -2.4 27.7
07:30 1021 30.15 850 25.1 8.5 47.3 48 -2 28.4
07:35 1021 30.15 850 25.1 9.1 48.4 45 -2.1 28.2
07:40 1021 30.15 850 25.1 9.5 49.1 44 -2.1 28.2
07:45 1021 30.15 850 25.1 9.6 49.3 44 -2.1 28.2
07:50 1021 30.15 850 25.1 10 50.1 44 -1.6 29.1
07:55 1021 30.15 850 25.1 10.1 50.2 43 -2 28.4
08:00 1021 30.15 850 25.1 10.2 50.4 41 -2.4 27.6
08:05 1021 30.15 850 25.1 10.5 50.9 40 -2.6 27.2
08:10 1021 30.15 850 25.1 10.7 51.3 39 -2.7 27.2
08:15 1021 30.15 850 25.1 10.5 50.9 40 -2.4 27.6
08:20 1021 30.15 850 25.1 10.9 51.5 40 -2.3 27.9
08:25 1021 30.15 850 25.1 11.1 52 39 -2.1 28.1
08:30 1021 30.15 850 25.1 11.1 52 40 -1.9 28.6
08:35 1021 30.15 850 25.1 11.6 52.9 38 -2.2 28
08:40 1021 30.15 850 25.1 11.5 52.7 39 -1.9 28.6
08:45 1021 30.15 850 25.1 11.2 52.2 41 -1.7 29
08:50 1021 30.15 850 25.1 11.3 52.3 40 -1.7 28.9
08:55 1021 30.15 850 25.1 11.3 52.4 39 -1.9 28.5
09:00 1021 30.15 850 25.1 11.5 52.6 40 -1.8 28.8
09:05 1021 30.15 850 25.1 11.8 53.2 39 -1.6 29.1
09:10 1021 30.15 850 25.1 11.6 52.9 40 -1.5 29.3
09:15 1021 30.15 850 25.1 11.7 53 40 -1.5 29.2
09:20 1021 30.15 850 25.1 12 53.5 39 -1.6 29.2
09:25 1021 30.15 850 25.1 12.2 54 38 -1.6 29.1
09:30 1021 30.15 850 25.1 12.5 54.4 39 -1.2 29.9
09:35 1021 30.15 850 25.1 12.7 54.9 38 -1.2 29.9
09:40 1021 30.15 850 25.1 12.5 54.6 38 -1.5 29.4
09:45 1021 30.15 850 25.1 12.4 54.3 39 -1.1 30
09:50 1021 30.15 850 25.1 12.6 54.7 38 -1.4 29.5
09:55 1021 30.15 850 25.1 13 55.3 35 -2.1 28.2
10:00 1021 30.15 850 25.1 13.3 56 37 -1 30.1
10:05 1021 30.15 850 25.1 13.4 56.1 33 -2.4 27.7
10:10 1021 30.15 850 25.1 13.2 55.8 33 -2.8 27
10:15 1021 30.15 850 25.1 13.2 55.8 31 -3.3 26
10:20 1021 30.15 850 25.1 13.4 56.1 31 -3.5 25.8
10:25 1021 30.15 850 25.1 13.6 56.5 30 -3.4 25.9
10:30 1021 30.15 850 25.1 13.6 56.4 31 -3.3 26.1
10:35 1021 30.15 850 25.1 13.5 56.3 32 -2.7 27.1
10:40 1021 30.15 850 25.1 13.6 56.5 32 -2.8 27
10:45 1021 30.15 850 25.1 13.5 56.3 32 -2.9 26.8
10:50 1021 30.15 850 25.1 13.5 56.3 31 -3.1 26.4
10:55 1021 30.15 850 25.1 13.7 56.7 30 -3.3 26
11:00 1021 30.15 850 25.1 13.4 56.1 30 -3.8 25.1
11:05 1021 30.15 850 25.1 14 57.3 31 -2.9 26.7
11:10 1021 30.15 850 25.1 14.4 57.8 29 -3.5 25.6
11:15 1021 30.15 850 25.1 14.1 57.4 30 -3.3 26
11:20 1021 30.15 850 25.1 13.9 57 29 -3.6 25.6
11:25 1021 30.15 850 25.1 14.1 57.5 29 -3.7 25.4
11:30 1021 30.15 850 25.1 15 59 28 -3.3 26.1
11:35 1021 30.15 850 25.1 14.8 58.7 28 -3.5 25.7
11:40 1021 30.15 850 25.1 14.7 58.4 28 -3.8 25.2
11:45 1021 30.15 850 25.1 13.7 56.7 29 -4.1 24.7
11:50 1021 30.15 850 25.1 14.6 58.3 28 -3.9 25.1
11:55 1021 30.15 850 25.1 14 57.3 29 -3.6 25.5
12:00 1021 30.15 850 25.1 14.7 58.4 27 -3.9 25
12:05 1021 30.15 850 25.1 14.5 58.2 28 -3.7 25.4
12:10 1021 30.15 850 25.1 14.3 57.7 29 -3.3 26.1
12:15 1021 30.15 850 25.1 14.8 58.6 28 -3.3 26.1
12:20 1021 30.15 850 25.1 15.2 59.4 28 -3.2 26.3
12:25 1021 30.15 850 25.1 14.2 57.6 30 -2.9 26.7
12:30 1021 30.15 850 25.1 13.5 56.2 31 -3.1 26.4
12:35 1021 30.15 850 25.1 13.3 56 33 -2.8 27
12:40 1021 30.15 850 25.1 13.1 55.5 34 -2.3 27.8
12:45 1021 30.15 850 25.1 12.1 53.9 37 -2 28.4
12:50 1021 30.15 850 25.1 12 53.6 37 -2.2 28
12:55 1021 30.15 850 25.1 11.7 53.1 38 -2.2 28.1
13:00 1021 30.15 850 25.1 12 53.6 38 -1.8 28.8
13:05 1021 30.15 850 25.1 12.8 55 36 -1.8 28.7
13:10 1021 30.15 850 25.1 12.7 54.9 37 -1.4 29.5
13:15 1021 30.15 850 25.1 12 53.6 39 -1.5 29.3
13:20 1021 30.15 850 25.1 12.1 53.8 38 -1.6 29.2
13:25 1021 30.15 850 25.1 12.1 53.8 39 -1.2 29.8
13:30 1021 30.15 850 25.1 12.3 54.2 39 -1.2 29.9
13:35 1021 30.15 850 25.1 12 53.5 40 -1.2 29.8
13:40 1021 30.15 850 25.1 12.1 53.7 38 -1.7 28.9
13:45 1021 30.15 850 25.1 11.9 53.4 39 -1.5 29.4
13:50 1021 30.15 851 25.13 12 53.6 38 -1.7 28.9
13:55 1021 30.15 851 25.13 11.6 52.8 38 -2.1 28.2
14:00 1021 30.15 851 25.13 11.4 52.6 38 -2.5 27.6
14:05 1021 30.15 851 25.13 11 51.7 40 -2.1 28.2
14:10 1021 30.15 851 25.13 11.1 51.9 39 -2.5 27.5
14:15 1022 30.18 851 25.13 10.8 51.4 39 -2.6 27.3
14:20 1022 30.18 851 25.13 10.8 51.4 38 -2.8 27
14:25 1022 30.18 851 25.13 10.9 51.7 37 -3.1 26.4
14:30 1022 30.18 851 25.13 10.8 51.5 37 -3.1 26.4
14:35 1022 30.18 851 25.13 11 51.7 37 -3 26.7
14:40 1022 30.18 851 25.13 10.8 51.5 37 -3.2 26.2
14:45 1022 30.18 851 25.13 10.6 51.1 36 -3.6 25.5
14:50 1022 30.18 851 25.13 10.4 50.7 37 -3.7 25.3
14:55 1022 30.18 851 25.13 10.5 50.9 36 -3.8 25.2
15:00 1022 30.18 851 25.13 10.4 50.7 37 -3.6 25.5
15:05 1022 30.18 851 25.13 10.3 50.6 37 -3.7 25.4
15:10 1022 30.18 851 25.13 10.3 50.5 37 -3.7 25.3
15:15 1022 30.18 851 25.13 10.3 50.6 38 -3.4 25.8
15:20 1022 30.18 851 25.13 10.4 50.7 36 -3.9 24.9
15:25 1022 30.18 851 25.13 10.1 50.2 38 -3.6 25.4
15:30 1022 30.18 851 25.13 9.8 49.6 38 -3.8 25.2
15:35 1022 30.18 851 25.13 9.7 49.5 38 -4 24.8
15:40 1022 30.18 851 25.13 9.7 49.5 38 -3.9 25
15:45 1022 30.18 851 25.13 9.6 49.3 38 -4 24.8
15:50 1022 30.18 851 25.13 9.5 49.2 38 -4.2 24.5
15:55 1022 30.18 851 25.13 9.4 48.9 38 -4.1 24.5
16:00 1022 30.18 851 25.13 9.4 49 38 -4.2 24.5
16:05 1022 30.18 852 25.16 9.6 49.3 37 -4.3 24.3
16:10 1022 30.18 852 25.16 9.8 49.7 37 -4.2 24.4
16:15 1022 30.18 852 25.16 10.1 50.1 36 -4.4 24.1
16:20 1022 30.18 852 25.16 10 50.1 36 -4.4 24
16:25 1022 30.18 852 25.16 10 50 36 -4.3 24.2
16:30 1022 30.18 852 25.16 9.9 49.7 38 -3.6 25.5
16:35 1023 30.21 852 25.16 9.7 49.5 41 -2.9 26.7
16:40 1022 30.18 852 25.16 9.8 49.7 40 -3.2 26.3
16:45 1022 30.18 852 25.16 9.8 49.6 41 -2.9 26.8
16:50 1023 30.21 852 25.16 9.7 49.4 40 -3.1 26.4
16:55 1023 30.21 852 25.16 9.4 49 42 -2.8 27
17:00 1023 30.21 852 25.16 9.4 48.8 42 -3 26.6
17:05 1023 30.21 852 25.16 9.2 48.5 43 -2.7 27.2
17:10 1023 30.21 852 25.16 8.8 47.9 44 -2.8 27
17:15 1023 30.21 852 25.16 8.5 47.2 45 -2.8 26.9
17:20 1023 30.21 852 25.16 8.3 47 45 -2.9 26.7
17:25 1023 30.21 852 25.16 8.2 46.8 46 -2.8 26.9
17:30 1023 30.21 852 25.16 8.1 46.6 47 -2.6 27.3
17:35 1023 30.21 852 25.16 8 46.4 47 -2.6 27.4
17:40 1023 30.21 852 25.16 8 46.3 48 -2.5 27.5
17:45 1023 30.21 852 25.16 7.8 46.1 48 -2.5 27.5
17:50 1023 30.21 852 25.16 7.9 46.3 47 -2.6 27.4
17:55 1023 30.21 852 25.16 7.9 46.3 47 -2.6 27.2
18:00 1023 30.21 852 25.16 7.8 46.1 47 -2.6 27.3
18:05 1023 30.21 852 25.16 7.8 46.1 48 -2.6 27.3
18:10 1023 30.21 852 25.16 7.7 45.9 48 -2.7 27.2
18:15 1023 30.21 852 25.16 7.7 45.9 49 -2.4 27.6
18:20 1023 30.21 852 25.16 7.7 45.8 49 -2.3 27.9
18:25 1023 30.21 852 25.16 7.7 45.8 50 -2.2 28
18:30 1023 30.21 852 25.16 7.5 45.4 51 -2.1 28.2
18:35 1023 30.21 852 25.16 7.4 45.4 51 -2 28.3
18:40 1023 30.21 852 25.16 7.4 45.4 51 -2 28.4
18:45 1023 30.21 852 25.16 7.2 44.9 52 -2 28.5
18:50 1023 30.21 852 25.16 6.9 44.4 53 -2.1 28.3
18:55 1023 30.21 852 25.16 6.8 44.2 53 -2 28.4
19:00 1023 30.21 852 25.16 6.6 43.9 54 -1.9 28.6
19:05 1023 30.21 852 25.16 6.5 43.7 53 -2.4 27.7
19:10 1023 30.21 852 25.16 6.5 43.8 50 -3.1 26.4
19:15 1023 30.21 852 25.16 6.6 43.9 50 -3.2 26.3
19:20 1023 30.21 853 25.19 6.5 43.7 49 -3.4 25.9
19:25 1023 30.21 853 25.19 6.5 43.6 49 -3.5 25.8
19:30 1023 30.21 853 25.19 6.4 43.6 49 -3.4 25.8
19:35 1023 30.21 853 25.19 6.5 43.7 47 -4 24.9
19:40 1023 30.21 853 25.19 6.5 43.7 48 -3.7 25.4
19:45 1024 30.24 853 25.19 6.3 43.3 47 -4.1 24.7
19:50 1024 30.24 853 25.19 6 42.7 49 -3.8 25.1
19:55 1024 30.24 853 25.19 5.7 42.2 54 -2.9 26.8
20:00 1024 30.24 853 25.19 5.3 41.5 58 -2.3 27.9
20:05 1024 30.24 853 25.19 5 41.1 58 -2.6 27.4
20:10 1024 30.24 853 25.19 4.9 40.7 60 -2.2 28.1
20:15 1024 30.24 853 25.19 4.7 40.4 60 -2.3 27.8
20:20 1024 30.24 853 25.19 4.5 40.2 59 -2.8 26.9
20:25 1024 30.24 853 25.19 4.5 40.1 56 -3.5 25.7
20:30 1024 30.24 853 25.19 4.5 40.1 52 -4.4 24
20:35 1024 30.24 853 25.19 4.7 40.4 50 -4.8 23.4
20:40 1024 30.24 853 25.19 4.6 40.4 50 -4.9 23.1
20:45 1024 30.24 853 25.19 4.5 40.2 49 -5.3 22.4
20:50 1024 30.24 853 25.19 4.5 40.1 49 -5.4 22.3
20:55 1024 30.24 853 25.19 4.4 39.9 50 -5.2 22.6
21:00 1024 30.24 853 25.19 4.2 39.6 51 -4.9 23.2
21:05 1024 30.24 853 25.19 4.1 39.3 52 -4.9 23.2
21:10 1024 30.24 853 25.19 3.9 39 53 -4.9 23.2
21:15 1024 30.24 853 25.19 3.7 38.7 54 -4.8 23.4
21:20 1024 30.24 853 25.19 3.7 38.6 53 -5.1 22.8
21:25 1024 30.24 853 25.19 3.9 38.9 51 -5.3 22.4
21:30 1024 30.24 853 25.19 4 39.2 55 -4.3 24.3
21:35 1024 30.24 853 25.19 3.3 38 61 -3.4 25.9
21:40 1024 30.24 853 25.19 3.2 37.8 55 -4.9 23.2
21:45 1024 30.24 853 25.19 3.7 38.6 55 -4.6 23.8
21:50 1024 30.24 853 25.19 3.5 38.4 52 -5.5 22.2
21:55 1024 30.24 853 25.19 3.6 38.6 49 -6.1 21
22:00 1024 30.24 853 25.19 3.6 38.5 49 -6 21.2
22:05 1024 30.24 853 25.19 3.5 38.4 52 -5.4 22.2
22:10 1024 30.24 853 25.19 3.2 37.8 54 -5.2 22.7
22:15 1024 30.24 853 25.19 3.1 37.5 55 -5 23
22:20 1024 30.24 853 25.19 3 37.4 57 -4.7 23.5
22:25 1024 30.24 853 25.19 2.9 37.3 57 -4.7 23.5
22:30 1024 30.24 853 25.19 2.9 37.3 57 -4.7 23.5
22:35 1024 30.24 853 25.19 3 37.4 57 -4.6 23.8
22:40 1024 30.24 854 25.22 2.9 37.2 58 -4.5 23.9
22:45 1024 30.24 854 25.22 2.8 37.1 58 -4.6 23.8
22:50 1024 30.24 854 25.22 2.9 37.2 59 -4.5 24
22:55 1024 30.24 854 25.22 2.7 36.8 59 -4.4 24
23:00 1024 30.24 854 25.22 2.5 36.5 60 -4.6 23.8
23:05 1024 30.24 854 25.22 2.4 36.4 62 -4 24.7
23:10 1024 30.24 854 25.22 2.1 35.9 63 -4.1 24.6
23:15 1024 30.24 854 25.22 2 35.6 63 -4.3 24.3
23:20 1024 30.24 854 25.22 1.9 35.5 63 -4.5 24
23:25 1024 30.24 854 25.22 2 35.7 62 -4.4 24.1
23:30 1024 30.24 854 25.22 2.1 35.8 62 -4.5 23.9
23:35 1025 30.27 854 25.22 2.1 35.8 62 -4.5 23.9
23:40 1025 30.27 854 25.22 1.7 35 64 -4.4 24.1
23:45 1024 30.24 854 25.22 1.2 34.2 67 -4.3 24.3
23:50 1025 30.27 854 25.22 1 33.8 68 -4.2 24.4
23:55 1025 30.27 854 25.22 0.5 32.8 70 -4.4 24.1
24:00 1025 30.27 854 25.22 0 32.1 72 -4.5 23.9